createdAt,value
2022-11-02T00:01:41.245Z,10.95
2022-11-02T00:04:09.659Z,9.30
2022-11-02T00:06:36.893Z,12.70
2022-11-02T00:09:03.854Z,11.40
2022-11-02T00:11:30.792Z,8.80
2022-11-02T00:13:57.772Z,8.18
2022-11-02T00:16:25.700Z,10.38
2022-11-02T00:18:56.289Z,9.80
2022-11-02T00:21:25.578Z,10.50
2022-11-02T00:23:53.621Z,10.77
2022-11-02T00:26:20.791Z,9.25
2022-11-02T00:28:47.752Z,13.77
2022-11-02T00:31:14.494Z,11.52
2022-11-02T00:33:41.232Z,14.93
2022-11-02T00:36:08.349Z,13.63
2022-11-02T00:38:35.191Z,8.90
2022-11-02T00:41:02.077Z,10.40
2022-11-02T00:43:28.899Z,12.90
2022-11-02T00:45:56.489Z,11.90
2022-11-02T00:48:23.376Z,11.02
2022-11-02T00:50:50.162Z,16.50
2022-11-02T00:53:17.128Z,11.70
2022-11-02T00:55:43.825Z,14.93
2022-11-02T00:58:10.654Z,13.85
2022-11-02T01:00:37.542Z,12.80
2022-11-02T01:03:04.482Z,16.80
2022-11-02T01:05:31.181Z,15.20
2022-11-02T01:07:58.014Z,13.65
2022-11-02T01:10:26.337Z,15.80
2022-11-02T01:12:53.312Z,14.70
2022-11-02T01:15:20.173Z,18.48
2022-11-02T01:17:47.118Z,11.98
2022-11-02T01:20:14.620Z,14.20
2022-11-02T01:22:41.308Z,13.95
2022-11-02T01:25:08.717Z,15.35
2022-11-02T01:27:35.471Z,14.02
2022-11-02T01:30:04.068Z,16.67
2022-11-02T01:32:31.101Z,22.25
2022-11-02T01:34:58.022Z,26.13
2022-11-02T01:37:24.824Z,24.75
2022-11-02T01:39:51.715Z,18.75
2022-11-02T01:42:21.013Z,17.67
2022-11-02T01:44:47.963Z,18.88
2022-11-02T01:47:19.527Z,22.92
2022-11-02T01:49:49.492Z,18.95
2022-11-02T01:52:30.983Z,24.48
2022-11-02T01:55:13.095Z,24.90
2022-11-02T01:57:42.189Z,19.40
2022-11-02T02:00:12.835Z,26.10
2022-11-02T02:02:50.693Z,21.10
2022-11-02T02:05:18.500Z,23.20
2022-11-02T02:07:46.113Z,16.77
2022-11-02T02:10:13.212Z,26.40
2022-11-02T02:12:42.849Z,18.48
2022-11-02T02:15:12.793Z,25.30
2022-11-02T02:18:02.862Z,20.10
2022-11-02T02:20:38.697Z,17.77
2022-11-02T02:23:43.185Z,22.38
2022-11-02T02:26:37.466Z,22.23
2022-11-02T02:29:28.633Z,20.38
2022-11-02T02:32:11.798Z,15.52
2022-11-02T02:35:04.264Z,19.27
2022-11-02T02:37:46.084Z,24.95
2022-11-02T02:40:31.770Z,25.08
2022-11-02T02:43:15.934Z,27.48
2022-11-02T02:45:47.969Z,19.05
2022-11-02T02:48:19.873Z,28.77
2022-11-02T02:50:50.303Z,21.15
2022-11-02T02:53:25.069Z,20.27
2022-11-02T02:55:53.025Z,32.38
2022-11-02T02:58:30.898Z,25.17
2022-11-02T03:01:00.744Z,24.00
2022-11-02T03:03:30.006Z,23.75
2022-11-02T03:06:26.184Z,24.35
2022-11-02T03:09:20.821Z,29.35
2022-11-02T03:12:16.770Z,23.15
2022-11-02T03:15:02.253Z,26.45
2022-11-02T03:17:32.862Z,28.02
2022-11-02T03:20:28.883Z,28.20
2022-11-02T03:23:20.624Z,19.08
2022-11-02T03:26:05.624Z,20.92
2022-11-02T03:28:45.380Z,18.75
2022-11-02T03:31:51.272Z,26.58
2022-11-02T03:34:28.920Z,34.78
2022-11-02T03:37:34.912Z,24.33
2022-11-02T03:40:21.946Z,26.33
2022-11-02T03:42:50.969Z,36.00
2022-11-02T03:45:27.285Z,27.83
2022-11-02T03:48:02.266Z,31.65
2022-11-02T03:53:21.837Z,27.15
2022-11-02T03:55:55.102Z,29.95
2022-11-02T03:58:21.953Z,26.00
2022-11-02T04:00:54.289Z,24.02
2022-11-02T04:03:24.270Z,33.38
2022-11-02T04:05:51.477Z,38.60
2022-11-02T04:08:26.476Z,33.40
2022-11-02T04:11:12.114Z,38.88
2022-11-02T04:13:57.742Z,29.88
2022-11-02T04:16:27.627Z,35.20
2022-11-02T04:19:13.713Z,39.35
2022-11-02T04:24:46.999Z,38.22
2022-11-02T04:27:18.121Z,35.40
2022-11-02T04:29:47.592Z,31.77
2022-11-02T04:32:14.519Z,33.97
2022-11-02T04:34:41.373Z,37.97
2022-11-02T04:37:28.149Z,27.10
2022-11-02T04:39:55.046Z,26.77
2022-11-02T04:42:21.969Z,30.98
2022-11-02T04:44:48.655Z,35.20
2022-11-02T04:47:15.359Z,29.48
2022-11-02T04:49:41.981Z,31.73
2022-11-02T04:52:10.045Z,39.95
2022-11-02T04:54:36.901Z,30.75
2022-11-02T04:57:03.765Z,34.25
2022-11-02T04:59:30.411Z,32.85
2022-11-02T05:01:57.125Z,37.22
2022-11-02T05:04:23.969Z,30.50
2022-11-02T05:06:50.951Z,26.23
2022-11-02T05:09:17.912Z,35.60
2022-11-02T05:11:44.706Z,25.40
2022-11-02T05:14:11.642Z,34.08
2022-11-02T05:16:38.586Z,42.90
2022-11-02T05:19:08.356Z,28.33
2022-11-02T05:21:37.744Z,27.85
2022-11-02T05:24:04.729Z,29.42
2022-11-02T05:26:31.593Z,44.65
2022-11-02T05:28:58.462Z,29.92
2022-11-02T05:31:25.292Z,22.67
2022-11-02T05:33:52.345Z,31.23
2022-11-02T05:36:19.186Z,36.53
2022-11-02T05:38:46.125Z,19.00
2022-11-02T05:41:13.417Z,35.28
2022-11-02T05:43:40.318Z,32.45
2022-11-02T05:46:07.031Z,30.45
2022-11-02T05:48:34.091Z,20.75
2022-11-02T05:51:03.498Z,26.88
2022-11-02T05:53:32.754Z,26.20
2022-11-02T05:56:01.192Z,29.48
2022-11-02T05:58:28.988Z,26.02
2022-11-02T06:00:59.692Z,28.83
2022-11-02T06:03:26.807Z,21.13
2022-11-02T06:06:01.657Z,28.80
2022-11-02T06:08:31.394Z,26.35
2022-11-02T06:10:58.247Z,30.10
2022-11-02T06:13:25.116Z,23.42
2022-11-02T06:15:52.061Z,28.52
2022-11-02T06:18:18.897Z,19.65
2022-11-02T06:20:45.751Z,20.83
2022-11-02T06:23:14.598Z,23.55
2022-11-02T06:25:41.415Z,20.08
2022-11-02T06:28:08.002Z,24.42
2022-11-02T06:30:34.931Z,27.40
2022-11-02T06:33:06.775Z,35.78
2022-11-02T06:35:34.063Z,27.05
2022-11-02T06:38:01.065Z,23.00
2022-11-02T06:40:28.354Z,29.05
2022-11-02T06:45:46.573Z,25.05
2022-11-02T06:48:13.567Z,21.20
2022-11-02T06:50:40.446Z,25.25
2022-11-02T06:53:07.750Z,26.75
2022-11-02T06:55:34.724Z,21.27
2022-11-02T06:58:01.413Z,25.40
2022-11-02T07:00:30.361Z,29.73
2022-11-02T07:03:09.712Z,24.88
2022-11-02T07:05:37.440Z,24.42
2022-11-02T07:08:04.749Z,16.88
2022-11-02T07:10:31.996Z,23.00
2022-11-02T07:12:59.295Z,25.45
2022-11-02T07:15:27.166Z,20.15
2022-11-02T07:17:54.532Z,17.65
2022-11-02T07:20:21.929Z,19.40
2022-11-02T07:22:57.001Z,17.42
2022-11-02T07:25:27.819Z,21.80
2022-11-02T07:27:55.210Z,18.58
2022-11-02T07:30:22.398Z,17.60
2022-11-02T07:32:49.271Z,22.42
2022-11-02T07:35:17.704Z,15.20
2022-11-02T07:37:45.236Z,20.02
2022-11-02T07:40:14.129Z,20.73
2022-11-02T07:42:45.736Z,20.52
2022-11-02T07:45:12.818Z,16.30
2022-11-02T07:47:44.198Z,15.15
2022-11-02T07:50:12.400Z,11.20
2022-11-02T07:53:05.618Z,12.05
2022-11-02T07:55:32.814Z,15.25
2022-11-02T07:58:04.808Z,11.00
2022-11-02T08:00:34.320Z,14.07
2022-11-02T08:03:02.869Z,16.23
2022-11-02T08:05:31.222Z,11.30
2022-11-02T08:08:03.586Z,16.85
2022-11-02T08:10:35.428Z,10.20
2022-11-02T08:15:32.649Z,19.50
2022-11-02T08:18:16.874Z,11.93
2022-11-02T08:20:45.908Z,16.33
2022-11-02T08:23:13.385Z,10.85
2022-11-02T08:25:40.681Z,16.95
2022-11-02T08:28:11.497Z,18.42
2022-11-02T08:30:38.624Z,12.95
2022-11-02T08:33:09.873Z,15.68
2022-11-02T08:35:37.790Z,13.45
2022-11-02T08:38:05.952Z,14.52
2022-11-02T08:40:33.193Z,14.45
2022-11-02T08:43:02.245Z,17.13
2022-11-02T08:45:38.517Z,18.35
2022-11-02T08:48:17.168Z,12.77
2022-11-02T08:50:44.021Z,16.92
2022-11-02T08:53:10.714Z,18.15
2022-11-02T08:55:37.618Z,15.70
2022-11-02T08:58:04.725Z,14.25
2022-11-02T09:00:34.062Z,16.92
2022-11-02T09:03:15.423Z,15.43
2022-11-02T09:05:44.581Z,15.77
2022-11-02T09:08:17.691Z,11.95
2022-11-02T09:10:46.703Z,11.35
2022-11-02T09:13:15.272Z,14.85
2022-11-02T09:15:42.460Z,17.63
2022-11-02T09:18:09.777Z,17.58
2022-11-02T09:20:36.972Z,11.57
2022-11-02T09:23:04.289Z,17.48
2022-11-02T09:25:31.223Z,14.02
2022-11-02T09:27:58.814Z,20.13
2022-11-02T09:30:28.738Z,15.85
2022-11-02T09:32:59.936Z,21.65
2022-11-02T09:35:32.419Z,19.98
2022-11-02T09:37:59.414Z,16.55
2022-11-02T09:40:28.866Z,15.52
2022-11-02T09:43:01.793Z,16.88
2022-11-02T09:45:33.189Z,10.43
2022-11-02T09:48:28.779Z,15.20
2022-11-02T09:51:04.147Z,11.63
2022-11-02T09:53:46.763Z,19.67
2022-11-02T09:56:16.544Z,18.77
2022-11-02T09:58:45.809Z,18.05
2022-11-02T10:01:40.551Z,14.68
2022-11-02T10:04:10.408Z,20.27
2022-11-02T10:06:43.387Z,23.45
2022-11-02T10:09:37.675Z,17.67
2022-11-02T10:12:14.642Z,17.05
2022-11-02T10:15:16.504Z,18.98
2022-11-02T10:17:44.953Z,18.85
2022-11-02T10:20:25.054Z,17.75
2022-11-02T10:22:54.313Z,14.68
2022-11-02T10:25:22.115Z,14.15
2022-11-02T10:27:53.176Z,21.48
2022-11-02T10:30:21.435Z,19.05
2022-11-02T10:32:54.742Z,11.20
2022-11-02T10:38:54.181Z,20.40
2022-11-02T10:41:54.507Z,15.98
2022-11-02T10:44:29.406Z,11.73
2022-11-02T10:47:30.536Z,19.85
2022-11-02T10:50:08.170Z,20.52
2022-11-02T10:52:42.524Z,19.55
2022-11-02T10:55:55.103Z,19.52
2022-11-02T10:58:23.386Z,20.27
2022-11-02T11:00:51.543Z,18.50
2022-11-02T11:03:19.472Z,17.85
2022-11-02T11:06:03.581Z,18.45
2022-11-02T11:08:42.356Z,18.30
2022-11-02T11:11:23.003Z,14.85
2022-11-02T11:19:54.952Z,18.70
2022-11-02T11:22:32.880Z,13.90
2022-11-02T11:25:28.375Z,17.48
2022-11-02T11:27:59.938Z,18.35
2022-11-02T11:33:23.485Z,16.88
2022-11-02T11:35:51.583Z,13.18
2022-11-02T11:38:22.937Z,22.27
2022-11-02T11:40:55.119Z,14.35
2022-11-02T11:43:26.177Z,11.27
2022-11-02T11:46:05.211Z,17.75
2022-11-02T11:48:40.406Z,23.40
2022-11-02T11:51:31.569Z,13.73
2022-11-02T11:54:19.960Z,13.93
2022-11-02T11:56:48.057Z,15.55
2022-11-02T11:59:25.061Z,21.15
2022-11-02T12:01:57.033Z,16.25
2022-11-02T12:04:37.683Z,10.13
2022-11-02T12:07:29.488Z,19.90
2022-11-02T12:10:23.021Z,19.17
2022-11-02T12:13:20.725Z,13.85
2022-11-02T12:16:14.866Z,18.35
2022-11-02T12:18:44.625Z,15.93
2022-11-02T12:21:19.343Z,15.57
2022-11-02T12:24:02.080Z,14.55
2022-11-02T12:26:38.945Z,14.63
2022-11-02T12:29:18.007Z,22.80
2022-11-02T12:32:06.718Z,22.35
2022-11-02T12:34:39.812Z,20.40
2022-11-02T12:37:45.499Z,11.82
2022-11-02T12:40:28.900Z,25.80
2022-11-02T12:43:05.143Z,23.73
2022-11-02T12:45:50.016Z,16.60
2022-11-02T12:48:27.871Z,22.60
2022-11-02T12:51:14.872Z,12.75
2022-11-02T12:53:47.645Z,16.92
2022-11-02T12:56:26.665Z,17.80
2022-11-02T12:58:54.377Z,20.35
2022-11-02T13:01:41.236Z,18.77
2022-11-02T13:04:25.903Z,12.60
2022-11-02T13:07:04.594Z,22.10
2022-11-02T13:09:47.697Z,18.05
2022-11-02T13:12:22.648Z,17.42
2022-11-02T13:14:52.449Z,13.18
2022-11-02T13:17:44.436Z,14.00
2022-11-02T13:20:26.237Z,16.50
2022-11-02T13:23:03.801Z,16.67
2022-11-02T13:25:40.070Z,18.15
2022-11-02T13:28:16.157Z,23.65
2022-11-02T13:30:44.738Z,12.77
2022-11-02T13:33:17.658Z,22.70
2022-11-02T13:35:46.392Z,19.80
2022-11-02T13:38:13.194Z,14.27
2022-11-02T13:40:59.514Z,16.60
2022-11-02T13:44:07.282Z,14.02
2022-11-02T13:46:42.989Z,21.25
2022-11-02T13:49:48.668Z,27.05
2022-11-02T13:52:21.104Z,17.73
2022-11-02T13:57:38.973Z,15.57
2022-11-02T14:00:28.612Z,22.08
2022-11-02T14:03:13.038Z,23.55
2022-11-02T14:06:10.471Z,19.63
2022-11-02T14:09:07.209Z,19.77
2022-11-02T14:11:40.092Z,13.32
2022-11-02T14:14:28.201Z,21.60
2022-11-02T14:16:54.835Z,21.98
2022-11-02T14:19:47.744Z,11.98
2022-11-02T14:22:16.402Z,16.23
2022-11-02T14:24:43.045Z,19.10
2022-11-02T14:27:12.872Z,15.27
2022-11-02T14:29:42.565Z,18.67
2022-11-02T14:32:20.048Z,18.92
2022-11-02T14:34:52.826Z,17.58
2022-11-02T14:37:41.176Z,12.10
2022-11-02T14:40:20.400Z,20.67
2022-11-02T14:43:02.672Z,19.20
2022-11-02T14:46:09.352Z,18.63
2022-11-02T14:48:52.413Z,17.58
2022-11-02T14:51:26.618Z,18.13
2022-11-02T14:54:01.549Z,18.57
2022-11-02T14:56:50.006Z,14.95
2022-11-02T14:59:25.436Z,13.60
2022-11-02T15:01:58.013Z,17.63
2022-11-02T15:04:26.664Z,11.75
2022-11-02T15:06:59.826Z,19.50
2022-11-02T15:09:55.446Z,19.48
2022-11-02T15:12:33.918Z,15.32
2022-11-02T15:15:28.443Z,17.45
2022-11-02T15:18:13.805Z,29.48
2022-11-02T15:20:45.920Z,24.92
2022-11-02T15:23:29.823Z,21.10
2022-11-02T15:25:59.370Z,18.60
2022-11-02T15:28:32.621Z,10.40
2022-11-02T15:31:05.577Z,19.05
2022-11-02T15:33:43.236Z,17.92
2022-11-02T15:36:28.287Z,16.55
2022-11-02T15:38:55.511Z,23.00
2022-11-02T15:41:38.749Z,14.48
2022-11-02T15:44:20.784Z,15.68
2022-11-02T15:46:56.698Z,18.40
2022-11-02T15:49:56.922Z,13.77
2022-11-02T15:53:21.096Z,16.48
2022-11-02T15:55:59.758Z,23.63
2022-11-02T15:58:47.985Z,19.77
2022-11-02T16:01:17.998Z,17.05
2022-11-02T16:03:58.766Z,17.17
2022-11-02T16:06:34.046Z,16.35
2022-11-02T16:11:29.067Z,17.92
2022-11-02T16:14:32.518Z,24.50
2022-11-02T16:16:59.121Z,19.80
2022-11-02T16:19:25.994Z,35.42
2022-11-02T16:21:55.981Z,27.10
2022-11-02T16:24:25.507Z,26.73
2022-11-02T16:26:52.497Z,23.67
2022-11-02T16:29:28.255Z,23.77
2022-11-02T16:31:55.042Z,17.15
2022-11-02T16:34:25.723Z,17.92
2022-11-02T16:36:52.796Z,18.40
2022-11-02T16:39:32.052Z,22.50
2022-11-02T16:42:00.738Z,25.95
2022-11-02T16:44:34.841Z,21.25
2022-11-02T16:47:07.738Z,27.83
2022-11-02T16:49:55.162Z,29.98
2022-11-02T16:52:42.313Z,42.22
2022-11-02T16:55:33.813Z,27.25
2022-11-02T16:58:02.365Z,23.23
2022-11-02T17:00:29.389Z,43.97
2022-11-02T17:02:57.264Z,23.73
2022-11-02T17:05:26.094Z,31.83
2022-11-02T17:08:05.949Z,22.50
2022-11-02T17:10:34.873Z,32.55
2022-11-02T17:13:03.432Z,20.50
2022-11-02T17:15:32.432Z,28.90
2022-11-02T17:18:08.583Z,20.00
2022-11-02T17:20:37.644Z,18.27
2022-11-02T17:23:10.020Z,26.98
2022-11-02T17:25:39.650Z,26.90
2022-11-02T17:28:45.595Z,26.95
2022-11-02T17:31:22.865Z,31.60
2022-11-02T17:33:50.709Z,19.83
2022-11-02T17:36:18.165Z,24.13
2022-11-02T17:38:45.133Z,26.33
2022-11-02T17:41:34.394Z,28.70
2022-11-02T17:44:01.644Z,35.70
2022-11-02T17:46:29.195Z,30.20
2022-11-02T17:48:57.792Z,29.00
2022-11-02T17:51:25.914Z,18.73
2022-11-02T17:53:52.962Z,24.77
2022-11-02T17:56:19.894Z,19.23
2022-11-02T17:58:46.776Z,31.83
2022-11-02T18:01:14.268Z,27.40
2022-11-02T18:03:41.365Z,32.67
2022-11-02T18:06:08.779Z,21.60
2022-11-02T18:08:55.593Z,30.40
2022-11-02T18:11:26.283Z,38.63
2022-11-02T18:13:53.536Z,31.00
2022-11-02T18:16:20.381Z,21.90
2022-11-02T18:18:47.244Z,21.88
2022-11-02T18:21:14.245Z,27.75
2022-11-02T18:23:41.858Z,25.38
2022-11-02T18:26:12.359Z,33.28
2022-11-02T18:28:39.999Z,29.65
2022-11-02T18:31:07.920Z,28.52
2022-11-02T18:33:35.227Z,30.40
2022-11-02T18:36:07.031Z,17.35
2022-11-02T18:38:33.729Z,17.95
2022-11-02T18:41:28.285Z,30.80
2022-11-02T18:44:03.311Z,20.10
2022-11-02T18:46:32.682Z,25.35
2022-11-02T18:49:01.229Z,27.27
2022-11-02T18:51:28.380Z,28.40
2022-11-02T18:53:56.414Z,33.85
2022-11-02T18:56:23.426Z,29.77
2022-11-02T18:58:54.627Z,25.10
2022-11-02T19:01:22.912Z,25.15
2022-11-02T19:03:54.836Z,23.33
2022-11-02T19:06:41.349Z,30.83
2022-11-02T19:09:20.449Z,22.92
2022-11-02T19:12:05.309Z,29.88
2022-11-02T19:14:37.934Z,22.80
2022-11-02T19:17:05.987Z,23.92
2022-11-02T19:19:33.574Z,28.08
2022-11-02T19:37:22.503Z,28.00
2022-11-02T19:39:49.307Z,33.30
2022-11-02T19:42:16.018Z,38.78
2022-11-02T19:44:43.087Z,35.45
2022-11-02T19:47:11.001Z,32.20
2022-11-02T19:49:37.822Z,31.60
2022-11-02T19:52:04.674Z,30.52
2022-11-02T19:54:31.555Z,26.63
2022-11-02T19:56:58.437Z,34.10
2022-11-02T19:59:25.162Z,30.45
2022-11-02T20:01:52.588Z,31.58
2022-11-02T20:04:19.664Z,29.52
2022-11-02T20:06:46.571Z,37.72
2022-11-02T20:09:16.416Z,34.05
2022-11-02T20:11:45.441Z,23.40
2022-11-02T20:14:14.555Z,42.90
2022-11-02T20:16:42.244Z,46.08
2022-11-02T20:19:09.753Z,35.25
2022-11-02T20:21:42.756Z,29.75
2022-11-02T20:24:10.825Z,37.10
2022-11-02T20:26:41.183Z,46.50
2022-11-02T20:29:11.031Z,42.33
2022-11-02T20:31:40.710Z,35.65
2022-11-02T20:34:08.760Z,39.90
